createdAt,value
2022-12-27T00:00:07.636Z,1.10
2022-12-27T00:05:07.828Z,1.23
2022-12-27T00:10:01.307Z,1.40
2022-12-27T00:14:53.358Z,0.73
2022-12-27T00:19:45.556Z,1.10
2022-12-27T00:24:40.627Z,1.50
2022-12-27T00:29:33.632Z,1.40
2022-12-27T00:34:25.864Z,1.43
2022-12-27T00:39:18.036Z,1.23
2022-12-27T00:44:10.953Z,0.90
2022-12-27T00:49:03.289Z,1.37
2022-12-27T00:53:55.899Z,1.50
2022-12-27T00:58:48.204Z,1.57
2022-12-27T01:03:41.558Z,1.40
2022-12-27T01:08:34.022Z,2.23
2022-12-27T01:13:26.231Z,1.47
2022-12-27T01:18:18.307Z,1.50
2022-12-27T01:23:12.380Z,1.33
2022-12-27T01:28:05.995Z,2.20
2022-12-27T01:32:58.636Z,1.17
2022-12-27T01:37:53.561Z,1.53
2022-12-27T01:42:55.687Z,1.13
2022-12-27T01:47:56.722Z,1.00
2022-12-27T01:53:12.117Z,1.50
2022-12-27T01:58:11.420Z,1.70
2022-12-27T02:03:05.937Z,1.20
2022-12-27T02:08:17.267Z,1.00
2022-12-27T02:13:11.728Z,1.17
2022-12-27T02:18:06.730Z,0.90
2022-12-27T02:24:10.164Z,1.17
2022-12-27T02:29:26.337Z,1.60
2022-12-27T02:34:44.893Z,1.43
2022-12-27T02:39:48.125Z,1.37
2022-12-27T02:45:00.890Z,1.10
2022-12-27T02:50:19.431Z,1.40
2022-12-27T02:55:33.955Z,1.10
2022-12-27T03:00:46.392Z,1.37
2022-12-27T03:06:16.847Z,1.37
2022-12-27T03:11:27.393Z,1.43
2022-12-27T03:16:21.153Z,1.53
2022-12-27T03:27:01.367Z,1.40
2022-12-27T03:32:21.221Z,1.60
2022-12-27T03:37:40.585Z,0.93
2022-12-27T03:42:57.617Z,1.33
2022-12-27T03:47:57.137Z,1.13
2022-12-27T03:53:10.973Z,1.50
2022-12-27T03:58:07.231Z,1.33
2022-12-27T04:03:02.939Z,1.23
2022-12-27T04:08:15.701Z,1.33
2022-12-27T04:13:27.943Z,1.50
2022-12-27T04:18:40.726Z,1.20
2022-12-27T04:23:53.890Z,1.17
2022-12-27T04:29:06.288Z,1.77
2022-12-27T04:34:18.426Z,1.93
2022-12-27T04:39:11.999Z,1.37
2022-12-27T04:44:26.787Z,1.90
2022-12-27T04:49:45.325Z,1.90
2022-12-27T04:55:02.551Z,1.90
2022-12-27T05:00:18.163Z,1.60
2022-12-27T05:05:13.054Z,1.87
2022-12-27T05:10:27.817Z,1.80
2022-12-27T05:15:23.321Z,1.47
2022-12-27T05:20:19.100Z,1.60
2022-12-27T05:25:34.687Z,0.97
2022-12-27T05:30:33.512Z,1.50
2022-12-27T05:35:27.908Z,1.53
2022-12-27T05:40:24.177Z,1.20
2022-12-27T05:45:19.040Z,0.97
2022-12-27T05:50:12.268Z,1.27
2022-12-27T05:55:09.037Z,1.00
2022-12-27T06:00:11.087Z,0.70
2022-12-27T06:05:13.956Z,1.23
2022-12-27T06:10:11.118Z,0.93
2022-12-27T06:15:09.104Z,0.60
2022-12-27T06:20:04.547Z,0.77
2022-12-27T06:24:59.420Z,1.00
2022-12-27T06:29:54.994Z,1.97
2022-12-27T06:34:50.262Z,24.50
2022-12-27T06:39:54.665Z,8.37
2022-12-27T06:44:58.457Z,1.90
2022-12-27T06:49:52.299Z,1.30
2022-12-27T06:54:47.572Z,0.60
2022-12-27T07:04:56.545Z,0.77
2022-12-27T07:09:50.889Z,1.13
2022-12-27T07:14:44.012Z,0.87
2022-12-27T07:19:38.679Z,1.03
2022-12-27T07:24:33.903Z,0.97
2022-12-27T07:29:28.984Z,0.87
2022-12-27T07:34:32.535Z,1.20
2022-12-27T07:39:26.456Z,0.90
2022-12-27T07:44:21.475Z,1.97
2022-12-27T07:49:25.132Z,0.97
2022-12-27T07:54:19.916Z,1.00
2022-12-27T07:59:16.272Z,1.20
2022-12-27T08:04:11.353Z,1.03
2022-12-27T08:09:08.145Z,1.50
2022-12-27T08:14:04.403Z,1.03
2022-12-27T08:19:08.237Z,1.00
2022-12-27T08:24:02.153Z,1.33
2022-12-27T08:28:56.235Z,1.37
2022-12-27T08:33:58.600Z,1.40
2022-12-27T08:38:55.459Z,1.30
2022-12-27T08:43:51.517Z,1.30
2022-12-27T08:48:48.016Z,1.20
2022-12-27T08:53:42.403Z,0.90
2022-12-27T08:58:37.257Z,1.33
2022-12-27T09:03:36.319Z,1.57
2022-12-27T09:08:31.692Z,1.27
2022-12-27T09:13:26.731Z,0.70
2022-12-27T09:18:23.739Z,1.00
2022-12-27T09:23:19.865Z,1.13
2022-12-27T09:28:19.796Z,1.00
2022-12-27T09:33:14.063Z,1.10
2022-12-27T09:38:07.915Z,1.33
2022-12-27T09:43:22.369Z,0.87
2022-12-27T09:48:34.380Z,0.90
2022-12-27T09:53:49.580Z,0.80
2022-12-27T09:58:51.831Z,0.93
2022-12-27T10:03:45.731Z,0.97
2022-12-27T10:09:22.507Z,0.90
2022-12-27T10:14:42.081Z,1.10
2022-12-27T10:19:44.441Z,0.93
2022-12-27T10:24:58.386Z,0.90
2022-12-27T10:29:54.779Z,0.97
2022-12-27T10:34:55.124Z,1.30
2022-12-27T10:39:49.581Z,0.80
2022-12-27T10:44:45.084Z,1.23
2022-12-27T10:49:40.296Z,0.90
2022-12-27T10:54:33.904Z,0.70
2022-12-27T10:59:30.741Z,1.00
2022-12-27T11:04:28.865Z,1.13
2022-12-27T11:09:50.782Z,1.30
2022-12-27T11:15:16.432Z,0.97
2022-12-27T11:20:13.065Z,0.90
2022-12-27T11:25:16.296Z,1.10
2022-12-27T11:30:26.638Z,0.73
2022-12-27T11:35:32.060Z,1.00
2022-12-27T11:40:40.344Z,0.67
2022-12-27T11:45:52.147Z,0.90
2022-12-27T11:51:11.173Z,0.77
2022-12-27T11:56:10.473Z,0.87
2022-12-27T12:01:30.894Z,0.80
2022-12-27T12:06:28.784Z,1.47
2022-12-27T12:11:55.379Z,2.40
2022-12-27T12:17:06.371Z,0.83
2022-12-27T12:22:10.746Z,1.53
2022-12-27T12:27:28.486Z,1.10
2022-12-27T12:32:28.792Z,1.33
2022-12-27T12:37:59.422Z,0.60
2022-12-27T12:43:22.386Z,0.90
2022-12-27T12:48:53.158Z,0.90
2022-12-27T12:54:08.203Z,0.70
2022-12-27T12:59:40.982Z,5.50
2022-12-27T13:05:32.323Z,0.83
2022-12-27T13:10:46.773Z,0.80
2022-12-27T13:16:15.598Z,1.03
2022-12-27T13:21:25.644Z,1.10
2022-12-27T13:26:39.900Z,1.17
2022-12-27T13:31:56.692Z,0.70
2022-12-27T13:36:57.955Z,0.70
2022-12-27T13:42:15.989Z,0.90
2022-12-27T13:47:21.666Z,1.17
2022-12-27T13:52:27.259Z,1.10
2022-12-27T13:57:57.036Z,1.10
2022-12-27T14:03:08.814Z,1.30
2022-12-27T14:08:25.324Z,1.20
2022-12-27T14:13:25.842Z,1.43
2022-12-27T14:18:37.193Z,1.17
2022-12-27T14:23:46.987Z,1.90
2022-12-27T14:29:15.580Z,1.17
2022-12-27T14:34:29.341Z,1.20
2022-12-27T14:39:26.150Z,1.30
2022-12-27T14:44:24.150Z,1.43
2022-12-27T14:49:35.102Z,1.17
2022-12-27T14:55:13.059Z,1.43
2022-12-27T15:00:21.514Z,1.33
2022-12-27T15:05:23.105Z,1.10
2022-12-27T15:10:25.056Z,1.00
2022-12-27T15:16:11.734Z,1.00
2022-12-27T15:21:14.684Z,0.90
2022-12-27T15:26:46.287Z,1.80
2022-12-27T15:32:02.463Z,1.20
2022-12-27T15:37:35.283Z,1.10
2022-12-27T15:42:48.929Z,1.30
2022-12-27T15:48:06.689Z,1.67
2022-12-27T15:53:16.963Z,1.50
2022-12-27T15:58:47.661Z,1.50
2022-12-27T16:04:21.386Z,2.20
2022-12-27T16:09:27.130Z,4.67
2022-12-27T16:14:44.108Z,6.80
2022-12-27T16:20:12.354Z,8.20
2022-12-27T16:25:42.522Z,7.13
2022-12-27T16:30:57.007Z,7.20
2022-12-27T16:36:06.017Z,5.13
2022-12-27T16:41:24.107Z,5.43
2022-12-27T16:46:56.669Z,3.57
2022-12-27T16:52:18.333Z,3.97
2022-12-27T16:57:26.856Z,3.93
2022-12-27T17:02:52.705Z,4.43
2022-12-27T17:08:18.022Z,4.67
2022-12-27T17:13:32.919Z,4.17
2022-12-27T17:18:30.605Z,4.47
2022-12-27T17:23:26.548Z,15.93
2022-12-27T17:28:35.658Z,5.53
2022-12-27T17:33:40.168Z,4.23
2022-12-27T17:39:06.161Z,5.30
2022-12-27T17:44:27.763Z,6.43
2022-12-27T17:49:27.339Z,9.70
2022-12-27T17:54:46.082Z,12.50
2022-12-27T17:59:45.684Z,12.67
2022-12-27T18:04:46.905Z,14.10
2022-12-27T18:10:07.556Z,6.47
2022-12-27T18:15:08.346Z,3.90
2022-12-27T18:20:29.943Z,4.60
2022-12-27T18:25:32.526Z,4.93
2022-12-27T18:30:27.640Z,8.50
2022-12-27T18:35:24.426Z,4.40
2022-12-27T18:40:24.272Z,7.77
2022-12-27T18:45:29.440Z,3.50
2022-12-27T18:50:34.815Z,4.47
2022-12-27T18:55:32.814Z,4.87
2022-12-27T19:00:27.591Z,2.67
2022-12-27T19:05:26.123Z,2.77
2022-12-27T19:10:23.870Z,2.13
2022-12-27T19:15:42.877Z,3.23
2022-12-27T19:20:38.338Z,2.87
2022-12-27T19:25:40.795Z,3.13
2022-12-27T19:30:38.706Z,2.70
2022-12-27T19:35:33.986Z,2.93
2022-12-27T19:40:29.719Z,2.20
2022-12-27T19:45:29.852Z,2.30
2022-12-27T19:50:27.628Z,1.90
2022-12-27T19:55:27.062Z,2.40
2022-12-27T20:00:28.427Z,2.50
2022-12-27T20:06:11.654Z,2.30
2022-12-27T20:10:39.952Z,4.93
2022-12-27T20:15:33.722Z,3.97
2022-12-27T20:20:33.065Z,3.10
2022-12-27T20:25:33.937Z,3.70
2022-12-27T20:30:50.319Z,6.20
2022-12-27T20:35:46.624Z,3.13
2022-12-27T20:40:42.769Z,2.70
2022-12-27T20:45:38.050Z,2.43
2022-12-27T20:50:32.314Z,3.27
2022-12-27T20:55:26.097Z,5.30
2022-12-27T21:00:26.987Z,4.97
2022-12-27T21:05:21.782Z,3.37
2022-12-27T21:10:16.423Z,3.57
2022-12-27T21:15:12.736Z,8.13
2022-12-27T21:20:11.855Z,7.53
2022-12-27T21:25:08.521Z,6.07
2022-12-27T21:30:03.343Z,5.20
2022-12-27T21:34:57.767Z,2.87
2022-12-27T21:39:54.744Z,2.87
2022-12-27T21:44:50.111Z,7.03
2022-12-27T21:49:45.465Z,2.90
2022-12-27T21:54:43.597Z,2.30
2022-12-27T21:59:47.553Z,3.23
2022-12-27T22:04:41.828Z,10.03
2022-12-27T22:09:48.816Z,8.63
2022-12-27T22:14:47.546Z,16.63
2022-12-27T22:19:47.891Z,10.33
2022-12-27T22:24:45.411Z,7.00
2022-12-27T22:29:41.365Z,6.23
2022-12-27T22:34:39.097Z,4.50
2022-12-27T22:39:34.411Z,2.83
2022-12-27T22:44:31.552Z,6.47
2022-12-27T22:49:25.782Z,5.27
2022-12-27T22:54:20.874Z,17.30
2022-12-27T22:59:35.221Z,4.10
2022-12-27T23:04:30.263Z,3.17
2022-12-27T23:09:27.201Z,44.97
2022-12-27T23:14:23.294Z,57.27
2022-12-27T23:19:21.036Z,87.60
2022-12-27T23:24:22.229Z,62.87
2022-12-27T23:29:19.928Z,52.40
2022-12-27T23:34:21.242Z,16.60
2022-12-27T23:39:19.091Z,17.93
2022-12-27T23:44:14.368Z,9.63
2022-12-27T23:49:09.330Z,6.67
2022-12-27T23:54:02.248Z,4.87
2022-12-27T23:58:59.278Z,4.50
